createdAt,value
2019-01-19T00:00:22.989Z,54.20
2019-01-19T00:01:23.158Z,54.20
2019-01-19T00:02:23.331Z,46.88
2019-01-19T00:03:23.495Z,55.66
2019-01-19T00:04:23.667Z,61.28
2019-01-19T00:05:23.856Z,55.66
2019-01-19T00:06:24.028Z,57.37
2019-01-19T00:07:24.193Z,49.80
2019-01-19T00:08:24.360Z,64.94
2019-01-19T00:09:24.530Z,58.59
2019-01-19T00:10:24.695Z,49.56
2019-01-19T00:11:24.866Z,60.30
2019-01-19T00:12:25.034Z,46.88
2019-01-19T00:13:25.199Z,47.12
2019-01-19T00:14:25.364Z,46.88
2019-01-19T00:15:25.539Z,56.15
2019-01-19T00:16:25.703Z,63.72
2019-01-19T00:17:25.867Z,47.61
2019-01-19T00:18:26.035Z,50.54
2019-01-19T00:19:26.201Z,52.25
2019-01-19T00:20:26.370Z,54.69
2019-01-19T00:21:26.549Z,48.34
2019-01-19T00:22:26.717Z,49.80
2019-01-19T00:23:26.895Z,51.51
2019-01-19T00:24:27.048Z,52.25
2019-01-19T00:25:27.228Z,48.58
2019-01-19T00:26:27.387Z,55.66
2019-01-19T00:27:27.542Z,44.19
2019-01-19T00:28:27.710Z,63.96
2019-01-19T00:29:27.881Z,50.05
2019-01-19T00:30:28.051Z,60.55
2019-01-19T00:31:28.214Z,57.86
2019-01-19T00:33:28.549Z,61.28
2019-01-19T00:34:34.039Z,53.96
2019-01-19T00:35:28.882Z,50.78
2019-01-19T00:36:29.098Z,50.05
2019-01-19T00:37:29.215Z,55.66
2019-01-19T00:38:29.385Z,63.96
2019-01-19T00:39:29.553Z,48.34
2019-01-19T00:40:29.720Z,46.39
2019-01-19T00:41:29.888Z,57.62
2019-01-19T00:42:30.053Z,58.11
2019-01-19T00:43:30.211Z,52.49
2019-01-19T00:44:30.385Z,63.23
2019-01-19T00:45:30.559Z,48.34
2019-01-19T00:46:30.729Z,49.80
2019-01-19T00:47:30.906Z,63.72
2019-01-19T00:48:31.076Z,60.79
2019-01-19T00:49:31.248Z,55.18
2019-01-19T00:50:31.415Z,45.90
2019-01-19T00:51:31.583Z,57.86
2019-01-19T00:52:31.749Z,48.10
2019-01-19T00:53:31.931Z,56.88
2019-01-19T00:54:32.079Z,45.17
2019-01-19T00:55:32.246Z,55.66
2019-01-19T00:56:32.417Z,52.49
2019-01-19T00:57:32.582Z,55.66
2019-01-19T00:58:32.751Z,56.88
2019-01-19T00:59:32.921Z,50.05
2019-01-19T01:00:33.085Z,55.42
2019-01-19T01:01:33.255Z,51.76
2019-01-19T01:02:33.424Z,56.15
2019-01-19T01:03:33.592Z,51.76
2019-01-19T01:04:33.760Z,59.57
2019-01-19T01:05:33.931Z,54.69
2019-01-19T01:06:34.095Z,50.54
2019-01-19T01:07:34.271Z,49.32
2019-01-19T01:08:34.427Z,54.20
2019-01-19T01:09:34.592Z,45.17
2019-01-19T01:10:34.792Z,51.51
2019-01-19T01:11:34.934Z,51.76
2019-01-19T01:12:35.087Z,46.63
2019-01-19T01:13:35.265Z,44.68
2019-01-19T01:14:35.432Z,48.34
2019-01-19T01:15:35.600Z,48.58
2019-01-19T01:16:35.773Z,46.63
2019-01-19T01:17:35.932Z,50.78
2019-01-19T01:18:36.096Z,44.43
2019-01-19T01:19:36.262Z,44.68
2019-01-19T01:20:36.433Z,54.44
2019-01-19T01:21:36.599Z,52.73
2019-01-19T01:22:36.772Z,45.90
2019-01-19T01:23:36.944Z,48.34
2019-01-19T01:24:37.105Z,46.88
2019-01-19T01:25:37.266Z,45.41
2019-01-19T01:26:37.443Z,56.40
2019-01-19T01:27:37.603Z,54.20
2019-01-19T01:28:37.762Z,45.90
2019-01-19T01:29:37.918Z,46.39
2019-01-19T01:30:38.097Z,47.12
2019-01-19T01:31:38.252Z,48.10
2019-01-19T01:32:38.420Z,47.36
2019-01-19T01:33:38.589Z,45.41
2019-01-19T01:34:38.763Z,49.80
2019-01-19T01:35:38.919Z,46.63
2019-01-19T01:36:39.099Z,48.34
2019-01-19T01:37:39.231Z,58.84
2019-01-19T01:38:39.408Z,49.56
2019-01-19T01:39:39.585Z,47.12
2019-01-19T01:40:39.742Z,57.86
2019-01-19T01:41:39.909Z,51.51
2019-01-19T01:42:40.079Z,56.40
2019-01-19T01:43:40.264Z,47.85
2019-01-19T01:44:40.417Z,57.13
2019-01-19T01:45:40.581Z,54.20
2019-01-19T01:46:40.759Z,51.76
2019-01-19T01:47:40.927Z,52.49
2019-01-19T01:48:41.097Z,45.17
2019-01-19T01:49:41.263Z,46.14
2019-01-19T01:50:41.439Z,45.65
2019-01-19T01:51:41.596Z,47.12
2019-01-19T01:52:41.763Z,45.90
2019-01-19T01:53:41.925Z,51.51
2019-01-19T01:54:42.100Z,46.14
2019-01-19T01:55:42.268Z,51.03
2019-01-19T01:56:42.435Z,47.61
2019-01-19T01:57:42.609Z,50.54
2019-01-19T01:58:42.769Z,49.56
2019-01-19T01:59:42.930Z,45.90
2019-01-19T02:00:43.104Z,46.39
2019-01-19T02:01:43.271Z,62.01
2019-01-19T02:02:43.444Z,59.33
2019-01-19T02:03:43.609Z,46.88
2019-01-19T02:04:43.782Z,48.58
2019-01-19T02:05:43.944Z,62.74
2019-01-19T02:06:44.115Z,46.14
2019-01-19T02:07:44.281Z,53.71
2019-01-19T02:08:44.452Z,49.32
2019-01-19T02:09:44.622Z,50.05
2019-01-19T02:10:44.789Z,45.90
2019-01-19T02:11:44.968Z,57.86
2019-01-19T02:12:45.118Z,47.36
2019-01-19T02:13:45.287Z,59.08
2019-01-19T02:14:45.469Z,46.63
2019-01-19T02:15:45.621Z,48.10
2019-01-19T02:16:45.788Z,52.49
2019-01-19T02:17:45.948Z,54.44
2019-01-19T02:18:46.118Z,50.54
2019-01-19T02:19:46.280Z,58.84
2019-01-19T02:20:46.464Z,69.09
2019-01-19T02:21:46.614Z,63.96
2019-01-19T02:22:46.779Z,54.20
2019-01-19T02:23:46.952Z,46.88
2019-01-19T02:24:47.108Z,50.29
2019-01-19T02:25:47.284Z,56.15
2019-01-19T02:26:47.448Z,50.05
2019-01-19T02:27:47.660Z,50.78
2019-01-19T02:28:47.784Z,47.36
2019-01-19T02:29:47.952Z,51.27
2019-01-19T02:30:48.122Z,57.37
2019-01-19T02:31:48.280Z,45.65
2019-01-19T02:32:48.453Z,53.96
2019-01-19T02:33:48.621Z,44.92
2019-01-19T02:34:48.795Z,55.42
2019-01-19T02:35:48.957Z,54.69
2019-01-19T02:36:49.130Z,49.07
2019-01-19T02:37:49.279Z,49.80
2019-01-19T02:38:49.453Z,50.78
2019-01-19T02:39:49.639Z,46.88
2019-01-19T02:40:49.788Z,47.61
2019-01-19T02:41:49.958Z,47.61
2019-01-19T02:42:50.116Z,51.51
2019-01-19T02:43:50.281Z,47.12
2019-01-19T02:44:50.452Z,57.13
2019-01-19T02:45:50.616Z,48.83
2019-01-19T02:46:50.783Z,66.89
2019-01-19T02:47:50.987Z,47.12
2019-01-19T02:48:51.189Z,47.61
2019-01-19T02:49:51.294Z,60.30
2019-01-19T02:50:51.456Z,52.00
2019-01-19T02:51:51.628Z,51.51
2019-01-19T02:52:51.793Z,48.10
2019-01-19T02:53:51.972Z,45.65
2019-01-19T02:54:52.133Z,45.65
2019-01-19T02:55:52.300Z,45.17
2019-01-19T02:56:52.469Z,46.14
2019-01-19T02:57:52.648Z,46.39
2019-01-19T02:58:52.803Z,46.39
2019-01-19T02:59:52.966Z,53.22
2019-01-19T03:00:53.146Z,53.71
2019-01-19T03:01:53.306Z,49.32
2019-01-19T03:02:53.477Z,48.83
2019-01-19T03:03:53.653Z,46.14
2019-01-19T03:04:53.823Z,49.07
2019-01-19T03:05:56.220Z,52.00
2019-01-19T03:06:54.154Z,50.05
2019-01-19T03:07:54.312Z,45.65
2019-01-19T03:08:54.485Z,54.93
2019-01-19T03:09:54.661Z,54.93
2019-01-19T03:10:54.823Z,52.25
2019-01-19T03:11:54.992Z,55.42
2019-01-19T03:12:55.158Z,53.22
2019-01-19T03:13:55.327Z,48.34
2019-01-19T03:14:55.502Z,49.32
2019-01-19T03:15:55.659Z,49.56
2019-01-19T03:16:55.826Z,55.42
2019-01-19T03:17:55.998Z,45.90
2019-01-19T03:18:56.166Z,47.36
2019-01-19T03:19:56.339Z,64.94
2019-01-19T03:20:56.504Z,49.07
2019-01-19T03:21:56.665Z,56.40
2019-01-19T03:22:56.836Z,62.26
2019-01-19T03:23:57.002Z,48.83
2019-01-19T03:24:57.169Z,47.85
2019-01-19T03:25:57.344Z,48.10
2019-01-19T03:26:57.502Z,49.32
2019-01-19T03:28:57.849Z,46.39
2019-01-19T03:29:58.007Z,47.36
2019-01-19T03:30:58.197Z,47.12
2019-01-19T03:31:58.419Z,45.17
2019-01-19T03:32:58.584Z,45.65
2019-01-19T03:33:58.742Z,45.17
2019-01-19T03:34:58.904Z,49.32
2019-01-19T03:36:04.290Z,44.92
2019-01-19T03:36:59.237Z,46.88
2019-01-19T03:37:59.403Z,45.17
2019-01-19T03:38:59.574Z,44.92
2019-01-19T03:39:59.740Z,60.79
2019-01-19T03:40:59.906Z,48.10
2019-01-19T03:42:00.079Z,45.90
2019-01-19T03:43:00.260Z,46.63
2019-01-19T03:44:00.410Z,48.10
2019-01-19T03:45:00.576Z,45.41
2019-01-19T03:46:00.745Z,44.92
2019-01-19T03:47:00.901Z,61.52
2019-01-19T03:48:01.079Z,77.88
2019-01-19T03:49:01.246Z,66.16
2019-01-19T03:50:01.445Z,44.43
2019-01-19T03:51:01.579Z,48.34
2019-01-19T03:52:01.742Z,55.18
2019-01-19T03:53:01.918Z,44.68
2019-01-19T03:54:02.090Z,45.41
2019-01-19T03:55:02.252Z,45.17
2019-01-19T03:56:02.425Z,45.17
2019-01-19T03:57:02.594Z,44.92
2019-01-19T03:58:02.751Z,45.17
2019-01-19T03:59:02.917Z,59.81
2019-01-19T04:00:03.100Z,65.19
2019-01-19T04:01:03.263Z,60.06
2019-01-19T04:02:03.427Z,56.64
2019-01-19T04:03:03.595Z,69.82
2019-01-19T04:04:03.778Z,55.66
2019-01-19T04:05:03.925Z,45.41
2019-01-19T04:06:04.092Z,45.65
2019-01-19T04:07:04.270Z,45.90
2019-01-19T04:08:04.428Z,46.39
2019-01-19T04:09:04.595Z,47.36
2019-01-19T04:10:04.785Z,50.54
2019-01-19T04:11:04.932Z,55.42
2019-01-19T04:12:05.096Z,61.28
2019-01-19T04:13:05.264Z,69.58
2019-01-19T04:14:05.433Z,48.58
2019-01-19T04:15:05.594Z,47.36
2019-01-19T04:16:05.781Z,50.54
2019-01-19T04:17:05.919Z,45.41
2019-01-19T04:18:06.089Z,45.17
2019-01-19T04:19:07.139Z,53.71
2019-01-19T04:20:06.415Z,51.76
2019-01-19T04:21:06.576Z,46.63
2019-01-19T04:22:06.753Z,46.88
2019-01-19T04:23:06.915Z,48.10
2019-01-19T04:24:07.082Z,45.65
2019-01-19T04:25:07.245Z,49.56
2019-01-19T04:26:07.416Z,46.39
2019-01-19T04:27:07.586Z,45.65
2019-01-19T04:28:07.746Z,46.14
2019-01-19T04:29:07.917Z,45.65
2019-01-19T04:30:08.084Z,46.63
2019-01-19T04:31:08.258Z,45.90
2019-01-19T04:32:08.415Z,53.47
2019-01-19T04:33:08.598Z,46.63
2019-01-19T04:34:08.752Z,47.36
2019-01-19T04:35:08.920Z,45.41
2019-01-19T04:36:09.070Z,46.14
2019-01-19T04:37:09.257Z,46.39
2019-01-19T04:38:09.401Z,48.83
2019-01-19T04:39:09.576Z,50.54
2019-01-19T04:40:09.747Z,52.49
2019-01-19T04:41:09.916Z,58.35
2019-01-19T04:42:10.082Z,50.54
2019-01-19T04:43:10.252Z,47.12
2019-01-19T04:44:10.411Z,46.39
2019-01-19T04:45:10.614Z,56.15
2019-01-19T04:46:10.749Z,53.96
2019-01-19T04:47:10.914Z,58.59
2019-01-19T04:48:11.088Z,52.49
2019-01-19T04:49:11.261Z,46.39
2019-01-19T04:50:11.416Z,46.39
2019-01-19T04:51:11.588Z,47.85
2019-01-19T04:52:11.753Z,47.36
2019-01-19T04:53:11.926Z,50.05
2019-01-19T04:54:12.092Z,47.12
2019-01-19T04:55:12.261Z,45.41
2019-01-19T04:56:12.431Z,45.65
2019-01-19T04:57:12.592Z,53.47
2019-01-19T04:58:12.758Z,52.73
2019-01-19T04:59:12.934Z,46.63
2019-01-19T05:00:13.106Z,70.07
2019-01-19T05:01:13.271Z,69.34
2019-01-19T05:02:13.442Z,56.40
2019-01-19T05:03:13.611Z,65.19
2019-01-19T05:04:13.774Z,45.17
2019-01-19T05:05:13.942Z,50.05
2019-01-19T05:06:14.106Z,50.29
2019-01-19T05:07:14.266Z,46.39
2019-01-19T05:08:14.439Z,45.65
2019-01-19T05:09:14.605Z,49.56
2019-01-19T05:10:14.772Z,55.66
2019-01-19T05:11:14.938Z,45.90
2019-01-19T05:12:15.109Z,45.17
2019-01-19T05:13:15.276Z,45.41
2019-01-19T05:14:15.448Z,49.80
2019-01-19T05:15:15.616Z,66.16
2019-01-19T05:16:15.782Z,45.17
2019-01-19T05:17:15.952Z,51.27
2019-01-19T05:18:16.118Z,45.65
2019-01-19T05:19:16.284Z,46.14
2019-01-19T05:20:16.468Z,46.88
2019-01-19T05:21:16.617Z,46.63
2019-01-19T05:22:16.773Z,45.41
2019-01-19T05:23:16.933Z,47.61
2019-01-19T05:24:17.103Z,46.14
2019-01-19T05:25:17.268Z,45.90
2019-01-19T05:26:17.437Z,46.88
2019-01-19T05:27:17.612Z,47.36
2019-01-19T05:28:17.772Z,46.14
2019-01-19T05:29:17.999Z,46.39
2019-01-19T05:30:18.096Z,69.58
2019-01-19T05:31:18.289Z,48.10
2019-01-19T05:32:18.446Z,53.96
2019-01-19T05:33:18.614Z,49.80
2019-01-19T05:34:18.780Z,46.14
2019-01-19T05:35:18.953Z,52.49
2019-01-19T05:36:19.123Z,56.88
2019-01-19T05:37:19.285Z,46.14
2019-01-19T05:38:19.451Z,47.61
2019-01-19T05:39:19.618Z,47.36
2019-01-19T05:40:19.784Z,47.12
2019-01-19T05:41:19.948Z,46.88
2019-01-19T05:42:20.113Z,56.88
2019-01-19T05:43:20.280Z,58.11
2019-01-19T05:44:20.457Z,46.63
2019-01-19T05:45:20.632Z,66.65
2019-01-19T05:46:21.500Z,56.15
2019-01-19T05:47:20.950Z,52.49
2019-01-19T05:48:21.126Z,46.63
2019-01-19T05:49:21.287Z,51.51
2019-01-19T05:50:21.457Z,51.27
2019-01-19T05:51:21.624Z,52.73
2019-01-19T05:52:21.793Z,53.22
2019-01-19T05:53:21.954Z,47.36
2019-01-19T05:54:22.126Z,51.27
2019-01-19T05:55:22.296Z,49.56
2019-01-19T05:56:22.464Z,58.35
2019-01-19T05:57:22.631Z,50.29
2019-01-19T05:58:22.800Z,56.64
2019-01-19T05:59:22.964Z,59.33
2019-01-19T06:00:23.167Z,69.58
2019-01-19T06:01:23.301Z,82.76
2019-01-19T06:02:23.474Z,80.32
2019-01-19T06:03:23.646Z,80.81
2019-01-19T06:04:23.816Z,80.08
2019-01-19T06:05:23.988Z,81.30
2019-01-19T06:06:24.150Z,80.81
2019-01-19T06:07:24.322Z,47.85
2019-01-19T06:08:24.492Z,46.88
2019-01-19T06:09:24.659Z,47.36
2019-01-19T06:10:24.832Z,57.37
2019-01-19T06:11:25.013Z,61.28
2019-01-19T06:12:25.158Z,57.37
2019-01-19T06:13:25.338Z,71.53
2019-01-19T06:14:25.495Z,52.98
2019-01-19T06:15:25.675Z,68.60
2019-01-19T06:16:25.827Z,56.15
2019-01-19T06:17:25.994Z,55.18
2019-01-19T06:18:26.162Z,57.37
2019-01-19T06:19:26.350Z,52.00
2019-01-19T06:20:26.495Z,50.54
2019-01-19T06:21:26.657Z,57.62
2019-01-19T06:22:26.825Z,60.55
2019-01-19T06:23:26.991Z,49.32
2019-01-19T06:24:27.155Z,54.93
2019-01-19T06:25:27.326Z,55.18
2019-01-19T06:26:27.497Z,51.76
2019-01-19T06:27:27.661Z,48.83
2019-01-19T06:28:27.826Z,56.88
2019-01-19T06:29:27.996Z,59.81
2019-01-19T06:30:28.163Z,66.89
2019-01-19T06:31:28.328Z,61.77
2019-01-19T06:32:28.500Z,55.18
2019-01-19T06:33:28.662Z,56.40
2019-01-19T06:34:28.829Z,52.98
2019-01-19T06:35:28.997Z,73.00
2019-01-19T06:36:29.169Z,53.22
2019-01-19T06:37:29.334Z,53.96
2019-01-19T06:38:29.501Z,49.80
2019-01-19T06:39:29.666Z,56.15
2019-01-19T06:40:29.833Z,60.79
2019-01-19T06:41:29.999Z,59.33
2019-01-19T06:42:30.165Z,56.40
2019-01-19T06:43:30.330Z,57.62
2019-01-19T06:44:30.496Z,60.79
2019-01-19T06:45:30.679Z,70.56
2019-01-19T06:46:30.842Z,61.04
2019-01-19T06:47:31.003Z,61.04
2019-01-19T06:48:31.169Z,61.28
2019-01-19T06:49:31.343Z,55.42
2019-01-19T06:50:31.512Z,72.75
2019-01-19T06:51:31.684Z,61.28
2019-01-19T06:52:31.848Z,64.45
2019-01-19T06:53:32.021Z,60.55
2019-01-19T06:54:32.183Z,60.06
2019-01-19T06:55:32.352Z,74.95
2019-01-19T06:56:32.533Z,59.08
2019-01-19T06:57:32.693Z,59.57
2019-01-19T06:58:32.852Z,63.23
2019-01-19T06:59:33.029Z,68.60
2019-01-19T07:00:33.182Z,68.85
2019-01-19T07:01:33.350Z,59.57
2019-01-19T07:02:33.517Z,70.31
2019-01-19T07:03:33.686Z,57.37
2019-01-19T07:04:33.852Z,61.28
2019-01-19T07:05:34.024Z,60.30
2019-01-19T07:06:34.183Z,63.48
2019-01-19T07:07:34.356Z,57.86
2019-01-19T07:08:34.522Z,72.27
2019-01-19T07:09:34.690Z,62.74
2019-01-19T07:10:34.859Z,65.43
2019-01-19T07:11:35.025Z,79.35
2019-01-19T07:12:35.193Z,59.57
2019-01-19T07:13:35.364Z,66.89
2019-01-19T07:14:35.524Z,65.19
2019-01-19T07:15:35.692Z,65.43
2019-01-19T07:16:35.862Z,59.08
2019-01-19T07:17:36.044Z,69.09
2019-01-19T07:18:36.197Z,75.68
2019-01-19T07:19:36.370Z,73.24
2019-01-19T07:20:36.539Z,66.65
2019-01-19T07:21:36.696Z,64.70
2019-01-19T07:22:36.883Z,86.91
2019-01-19T07:24:37.204Z,67.87
2019-01-19T07:25:37.382Z,78.86
2019-01-19T07:26:37.535Z,64.45
2019-01-19T07:27:37.713Z,66.16
2019-01-19T07:28:37.882Z,64.21
2019-01-19T07:29:38.055Z,67.87
2019-01-19T07:30:38.222Z,71.29
2019-01-19T07:31:38.395Z,59.08
2019-01-19T07:32:38.547Z,57.62
2019-01-19T07:33:38.712Z,66.16
2019-01-19T07:34:38.889Z,55.18
2019-01-19T07:35:39.045Z,58.35
2019-01-19T07:36:39.210Z,62.01
2019-01-19T07:37:39.374Z,57.86
2019-01-19T07:38:39.546Z,69.34
2019-01-19T07:39:39.710Z,57.86
2019-01-19T07:40:39.879Z,56.88
2019-01-19T07:41:40.037Z,58.11
2019-01-19T07:42:40.204Z,80.32
2019-01-19T07:43:40.362Z,82.03
2019-01-19T07:44:40.530Z,79.59
2019-01-19T07:45:40.696Z,71.04
2019-01-19T07:46:40.874Z,62.26
2019-01-19T07:47:41.024Z,56.64
2019-01-19T07:48:41.191Z,68.12
2019-01-19T07:49:41.357Z,70.31
2019-01-19T07:50:41.526Z,59.33
2019-01-19T07:51:41.694Z,69.09
2019-01-19T07:52:41.863Z,59.81
2019-01-19T07:53:42.029Z,69.82
2019-01-19T07:54:42.203Z,62.01
2019-01-19T07:55:42.361Z,52.98
2019-01-19T07:56:42.531Z,57.37
2019-01-19T07:57:42.691Z,55.66
2019-01-19T07:58:42.872Z,57.37
2019-01-19T07:59:43.033Z,52.98
2019-01-19T08:00:43.207Z,71.29
2019-01-19T08:01:43.379Z,56.64
2019-01-19T08:02:43.541Z,51.03
2019-01-19T08:03:43.723Z,64.70
2019-01-19T08:04:43.897Z,55.18
2019-01-19T08:05:44.058Z,56.15
2019-01-19T08:06:44.225Z,59.81
2019-01-19T08:07:44.403Z,58.84
2019-01-19T08:08:44.556Z,62.26
2019-01-19T08:09:44.724Z,64.70
2019-01-19T08:10:44.904Z,65.43
2019-01-19T08:11:45.061Z,63.48
2019-01-19T08:12:45.226Z,60.79
2019-01-19T08:13:45.398Z,62.74
2019-01-19T08:14:45.565Z,68.85
2019-01-19T08:15:45.727Z,69.09
2019-01-19T08:16:45.899Z,62.01
2019-01-19T08:17:46.217Z,66.41
2019-01-19T08:18:46.225Z,67.87
2019-01-19T08:19:46.462Z,52.49
2019-01-19T08:20:46.503Z,54.20
2019-01-19T08:21:46.678Z,65.19
2019-01-19T08:22:46.841Z,64.21
2019-01-19T08:23:47.002Z,55.18
2019-01-19T08:24:47.170Z,64.21
2019-01-19T08:25:47.340Z,61.28
2019-01-19T08:26:47.508Z,56.15
2019-01-19T08:27:47.680Z,63.23
2019-01-19T08:28:47.845Z,75.20
2019-01-19T08:29:48.021Z,71.53
2019-01-19T08:30:48.166Z,69.34
2019-01-19T08:31:48.341Z,60.79
2019-01-19T08:32:48.516Z,61.77
2019-01-19T08:33:48.699Z,61.04
2019-01-19T08:34:48.860Z,64.70
2019-01-19T08:35:49.025Z,62.26
2019-01-19T08:36:49.186Z,66.16
2019-01-19T08:37:49.379Z,61.77
2019-01-19T08:38:49.526Z,62.01
2019-01-19T08:39:49.698Z,62.74
2019-01-19T08:40:49.856Z,66.41
2019-01-19T08:41:50.032Z,68.12
2019-01-19T08:42:50.192Z,66.41
2019-01-19T08:43:50.362Z,68.36
2019-01-19T08:44:50.525Z,72.27
2019-01-19T08:45:50.689Z,70.31
2019-01-19T08:46:50.857Z,66.65
2019-01-19T08:47:51.031Z,60.79
2019-01-19T08:48:51.195Z,70.56
2019-01-19T08:49:51.361Z,62.50
2019-01-19T08:50:51.541Z,65.67
2019-01-19T08:51:51.713Z,62.50
2019-01-19T08:52:51.861Z,61.28
2019-01-19T08:53:52.031Z,67.14
2019-01-19T08:54:52.193Z,64.94
2019-01-19T08:55:52.357Z,63.96
2019-01-19T08:56:52.531Z,59.08
2019-01-19T08:57:52.696Z,63.23
2019-01-19T08:58:52.870Z,60.55
2019-01-19T08:59:53.034Z,60.79
2019-01-19T09:00:53.205Z,72.75
2019-01-19T09:01:53.378Z,61.77
2019-01-19T09:02:53.539Z,57.37
2019-01-19T09:03:53.718Z,57.62
2019-01-19T09:04:53.880Z,73.49
2019-01-19T09:05:54.040Z,71.78
2019-01-19T09:06:54.205Z,60.55
2019-01-19T09:07:54.409Z,63.96
2019-01-19T09:08:54.581Z,71.04
2019-01-19T09:09:54.756Z,57.86
2019-01-19T09:10:54.919Z,67.14
2019-01-19T09:11:55.090Z,70.56
2019-01-19T09:12:55.274Z,65.19
2019-01-19T09:13:55.433Z,67.87
2019-01-19T09:14:55.602Z,63.23
2019-01-19T09:15:55.771Z,72.51
2019-01-19T09:16:55.943Z,62.01
2019-01-19T09:17:56.124Z,64.45
2019-01-19T09:18:56.293Z,60.79
2019-01-19T09:19:56.444Z,66.41
2019-01-19T09:20:56.635Z,59.08
2019-01-19T09:21:56.794Z,67.14
2019-01-19T09:22:56.995Z,65.92
2019-01-19T09:23:58.101Z,66.16
2019-01-19T09:24:57.326Z,66.89
2019-01-19T09:25:57.491Z,66.16
2019-01-19T09:26:57.657Z,63.48
2019-01-19T09:27:57.825Z,75.68
2019-01-19T09:28:57.993Z,74.71
2019-01-19T09:29:58.161Z,68.85
2019-01-19T09:30:58.329Z,73.97
2019-01-19T09:31:58.515Z,68.12
2019-01-19T09:32:58.679Z,65.92
2019-01-19T09:33:58.843Z,63.72
2019-01-19T09:34:59.010Z,77.15
2019-01-19T09:35:59.174Z,67.38
2019-01-19T09:36:59.335Z,74.46
2019-01-19T09:37:59.502Z,62.99
2019-01-19T09:38:59.672Z,60.06
2019-01-19T09:39:59.842Z,69.09
2019-01-19T09:41:00.001Z,66.16
2019-01-19T09:42:00.193Z,67.63
2019-01-19T09:43:00.356Z,75.20
2019-01-19T09:44:00.542Z,62.26
2019-01-19T09:45:00.701Z,94.97
2019-01-19T09:46:00.885Z,93.02
2019-01-19T09:47:01.052Z,67.14
2019-01-19T09:48:01.234Z,70.31
2019-01-19T09:49:01.417Z,71.04
2019-01-19T09:50:01.553Z,63.96
2019-01-19T09:51:01.728Z,85.21
2019-01-19T09:52:01.900Z,86.91
2019-01-19T09:53:02.097Z,86.67
2019-01-19T09:54:02.227Z,87.40
2019-01-19T09:55:02.398Z,86.91
2019-01-19T09:56:02.567Z,86.18
2019-01-19T09:57:02.733Z,86.43
2019-01-19T09:58:02.900Z,87.16
2019-01-19T09:59:03.069Z,87.16
2019-01-19T10:00:03.239Z,85.94
2019-01-19T10:01:03.421Z,85.94
2019-01-19T10:02:03.582Z,74.22
2019-01-19T10:03:03.748Z,67.87
2019-01-19T10:04:03.915Z,71.04
2019-01-19T10:05:04.094Z,61.28
2019-01-19T10:06:04.253Z,62.01
2019-01-19T10:07:05.168Z,64.45
2019-01-19T10:08:04.573Z,71.78
2019-01-19T10:09:05.692Z,71.29
2019-01-19T10:10:04.906Z,60.55
2019-01-19T10:11:05.081Z,59.57
2019-01-19T10:12:05.238Z,68.60
2019-01-19T10:13:05.419Z,67.38
2019-01-19T10:14:05.585Z,61.52
2019-01-19T10:15:05.752Z,74.46
2019-01-19T10:16:05.924Z,63.48
2019-01-19T10:17:06.086Z,61.28
2019-01-19T10:18:06.271Z,62.26
2019-01-19T10:19:06.429Z,64.70
2019-01-19T10:20:06.596Z,69.58
2019-01-19T10:21:06.764Z,69.58
2019-01-19T10:22:06.933Z,65.19
2019-01-19T10:23:07.102Z,69.09
2019-01-19T10:24:07.270Z,71.04
2019-01-19T10:25:07.454Z,63.96
2019-01-19T10:26:07.617Z,69.09
2019-01-19T10:27:07.782Z,75.93
2019-01-19T10:28:07.987Z,78.61
2019-01-19T10:29:08.117Z,65.67
2019-01-19T10:30:08.295Z,72.51
2019-01-19T10:31:08.457Z,62.99
2019-01-19T10:32:08.632Z,66.16
2019-01-19T10:33:08.800Z,72.75
2019-01-19T10:34:08.975Z,83.74
2019-01-19T10:35:09.137Z,75.93
2019-01-19T10:36:09.307Z,74.46
2019-01-19T10:37:09.483Z,65.43
2019-01-19T10:38:09.651Z,82.52
2019-01-19T10:39:09.815Z,80.32
2019-01-19T10:40:09.984Z,79.10
2019-01-19T10:41:10.166Z,69.09
2019-01-19T10:42:10.323Z,70.56
2019-01-19T10:43:10.501Z,75.68
2019-01-19T10:44:10.662Z,78.61
2019-01-19T10:45:10.827Z,74.95
2019-01-19T10:46:10.994Z,75.44
2019-01-19T10:47:11.159Z,70.56
2019-01-19T10:48:11.329Z,82.76
2019-01-19T10:49:11.518Z,67.14
2019-01-19T10:50:11.684Z,62.99
2019-01-19T10:51:11.837Z,61.28
2019-01-19T10:52:12.017Z,60.06
2019-01-19T10:53:13.358Z,65.43
2019-01-19T10:54:12.346Z,62.01
2019-01-19T10:55:12.518Z,71.29
2019-01-19T10:56:12.698Z,70.80
2019-01-19T10:57:12.872Z,69.58
2019-01-19T10:58:13.040Z,66.89
2019-01-19T10:59:13.187Z,71.04
2019-01-19T11:00:13.371Z,71.29
2019-01-19T11:01:13.525Z,83.25
2019-01-19T11:02:13.699Z,86.67
2019-01-19T11:03:13.870Z,86.67
2019-01-19T11:04:14.051Z,87.16
2019-01-19T11:05:14.230Z,85.21
2019-01-19T11:06:14.393Z,93.02
2019-01-19T11:07:14.565Z,66.16
2019-01-19T11:08:14.736Z,64.94
2019-01-19T11:09:14.906Z,83.74
2019-01-19T11:10:15.079Z,67.38
2019-01-19T11:11:15.259Z,65.43
2019-01-19T11:12:15.420Z,72.27
2019-01-19T11:13:15.588Z,62.01
2019-01-19T11:14:15.756Z,60.06
2019-01-19T11:15:15.936Z,69.09
2019-01-19T11:16:16.101Z,59.08
2019-01-19T11:17:16.287Z,70.31
2019-01-19T11:18:16.456Z,67.63
2019-01-19T11:19:16.624Z,64.70
2019-01-19T11:20:16.798Z,64.21
2019-01-19T11:21:16.975Z,64.21
2019-01-19T11:22:17.465Z,62.99
2019-01-19T11:23:17.307Z,67.14
2019-01-19T11:24:17.471Z,77.39
2019-01-19T11:25:17.651Z,60.30
2019-01-19T11:26:17.834Z,63.23
2019-01-19T11:27:17.990Z,61.77
2019-01-19T11:28:18.163Z,66.89
2019-01-19T11:29:18.349Z,70.56
2019-01-19T11:30:18.520Z,72.75
2019-01-19T11:31:18.671Z,74.46
2019-01-19T11:32:18.838Z,64.45
2019-01-19T11:33:19.012Z,62.26
2019-01-19T11:34:19.196Z,67.38
2019-01-19T11:35:19.358Z,67.38
2019-01-19T11:36:19.515Z,68.60
2019-01-19T11:37:19.696Z,65.67
2019-01-19T11:38:20.330Z,64.21
2019-01-19T11:39:20.042Z,63.96
2019-01-19T11:40:20.226Z,67.63
2019-01-19T11:41:20.395Z,62.26
2019-01-19T11:42:20.591Z,59.33
2019-01-19T11:43:20.781Z,62.99
2019-01-19T11:44:21.000Z,64.45
2019-01-19T11:45:21.230Z,71.04
2019-01-19T11:46:21.354Z,66.89
2019-01-19T11:47:21.572Z,65.67
2019-01-19T11:48:21.690Z,65.67
2019-01-19T11:49:21.872Z,66.16
2019-01-19T11:50:22.842Z,63.96
2019-01-19T11:51:22.224Z,72.51
2019-01-19T11:52:22.395Z,68.36
2019-01-19T11:53:22.560Z,63.96
2019-01-19T11:54:22.731Z,62.74
2019-01-19T11:55:22.906Z,60.30
2019-01-19T11:56:23.084Z,59.57
2019-01-19T11:57:23.254Z,63.48
2019-01-19T11:58:23.428Z,60.55
2019-01-19T11:59:23.599Z,62.50
2019-01-19T12:00:23.779Z,75.20
2019-01-19T12:01:23.946Z,61.04
2019-01-19T12:02:24.120Z,62.74
2019-01-19T12:03:24.296Z,67.14
2019-01-19T12:04:24.465Z,63.23
2019-01-19T12:05:24.647Z,58.59
2019-01-19T12:06:24.817Z,60.30
2019-01-19T12:07:25.000Z,72.27
2019-01-19T12:08:25.169Z,62.50
2019-01-19T12:09:25.338Z,61.52
2019-01-19T12:10:25.525Z,60.79
2019-01-19T12:11:25.687Z,72.51
2019-01-19T12:12:25.865Z,59.81
2019-01-19T12:13:26.039Z,63.96
2019-01-19T12:14:26.245Z,71.78
2019-01-19T12:15:26.397Z,70.56
2019-01-19T12:16:26.570Z,58.59
2019-01-19T12:17:26.749Z,58.84
2019-01-19T12:18:26.928Z,59.57
2019-01-19T12:19:27.095Z,60.79
2019-01-19T12:20:27.277Z,59.08
2019-01-19T12:21:27.447Z,62.50
2019-01-19T12:22:27.628Z,61.28
2019-01-19T12:23:27.806Z,63.23
2019-01-19T12:24:27.983Z,67.87
2019-01-19T12:25:28.159Z,69.34
2019-01-19T12:26:28.335Z,63.96
2019-01-19T12:27:28.525Z,65.43
2019-01-19T12:28:28.686Z,72.27
2019-01-19T12:29:28.871Z,62.74
2019-01-19T12:30:29.038Z,71.29
2019-01-19T12:31:29.219Z,69.34
2019-01-19T12:32:29.391Z,60.55
2019-01-19T12:33:29.567Z,65.43
2019-01-19T12:34:29.742Z,67.87
2019-01-19T12:35:29.922Z,63.72
2019-01-19T12:36:30.100Z,62.26
2019-01-19T12:37:30.281Z,69.09
2019-01-19T12:38:30.459Z,59.81
2019-01-19T12:39:30.628Z,61.28
2019-01-19T12:40:30.806Z,64.21
2019-01-19T12:41:30.981Z,64.70
2019-01-19T12:42:31.163Z,63.72
2019-01-19T12:43:31.322Z,66.65
2019-01-19T12:44:31.521Z,64.21
2019-01-19T12:45:31.695Z,72.75
2019-01-19T12:46:31.873Z,55.91
2019-01-19T12:47:32.052Z,59.81
2019-01-19T12:48:32.236Z,74.95
2019-01-19T12:49:32.410Z,64.94
2019-01-19T12:50:32.589Z,66.65
2019-01-19T12:51:32.784Z,74.95
2019-01-19T12:52:32.953Z,65.92
2019-01-19T12:53:33.125Z,67.63
2019-01-19T12:54:33.311Z,67.14
2019-01-19T12:55:33.478Z,66.65
2019-01-19T12:56:33.658Z,65.43
2019-01-19T12:57:33.832Z,60.30